Time;durP1;ratioP1;P1;durP2;ratioP2;P2;SDS_P1;SDS_P2;PMS_P1;PMS_P2;Temp;Humidity;BMP_temperature;BMP_pressure;BME280_temperature;BME280_humidity;BME280_pressure;Samples;Min_cycle;Max_cycle;Signal;HPM_P1;HPM_P2
2021/03/15 00:01:42;;;;;;;7.30;1.98;;;6.50;99.90;;;;;;5044747;28;20027;-63
2021/03/15 00:04:08;;;;;;;8.70;2.15;;;6.40;99.90;;;;;;5044086;28;20112;-63
2021/03/15 00:06:33;;;;;;;5.57;2.00;;;6.40;99.90;;;;;;5034262;28;20042;-63
2021/03/15 00:08:59;;;;;;;7.47;2.08;;;6.50;99.90;;;;;;5035079;28;20123;-63
2021/03/15 00:11:24;;;;;;;8.70;2.22;;;6.50;99.90;;;;;;5042227;28;20068;-63
2021/03/15 00:13:50;;;;;;;12.93;2.00;;;6.40;99.90;;;;;;5046023;28;20075;-63
2021/03/15 00:16:16;;;;;;;12.07;2.28;;;6.40;99.90;;;;;;5032192;28;20448;-63
2021/03/15 00:18:41;;;;;;;11.98;2.20;;;6.50;99.90;;;;;;5046387;28;20374;-63
2021/03/15 00:21:07;;;;;;;11.73;2.33;;;6.40;99.90;;;;;;5040072;28;20032;-64
2021/03/15 00:23:33;;;;;;;10.52;2.05;;;6.40;99.90;;;;;;5046112;28;20118;-63
2021/03/15 00:25:58;;;;;;;9.27;2.10;;;6.40;99.90;;;;;;5040435;28;20444;-63
2021/03/15 00:28:24;;;;;;;9.70;1.90;;;6.40;99.90;;;;;;5045499;28;20036;-63
2021/03/15 00:30:49;;;;;;;11.68;2.10;;;6.40;99.90;;;;;;5040262;28;20067;-63
2021/03/15 00:33:15;;;;;;;14.38;2.42;;;6.30;99.90;;;;;;5046106;28;20413;-63
2021/03/15 00:35:41;;;;;;;13.02;2.30;;;6.40;99.90;;;;;;5039226;28;20033;-63
2021/03/15 00:38:07;;;;;;;10.60;2.20;;;6.30;99.90;;;;;;5047826;28;20060;-63
2021/03/15 00:40:33;;;;;;;9.30;1.80;;;6.40;99.90;;;;;;5038821;28;20103;-63
2021/03/15 00:42:58;;;;;;;8.55;1.90;;;6.40;99.90;;;;;;5046428;28;20028;-63
2021/03/15 00:45:25;;;;;;;12.23;2.10;;;6.40;99.90;;;;;;5037808;28;20032;-63
2021/03/15 00:47:51;;;;;;;8.48;2.50;;;6.40;99.90;;;;;;5047608;28;20621;-63
2021/03/15 00:50:19;;;;;;;11.40;2.45;;;6.40;99.90;;;;;;5039541;28;20017;-64
2021/03/15 00:52:44;;;;;;;8.38;2.17;;;6.40;99.90;;;;;;5029226;28;20107;-63
2021/03/15 00:55:11;;;;;;;12.25;3.50;;;6.60;99.90;;;;;;5036695;28;20060;-63
2021/03/15 00:57:36;;;;;;;12.75;3.20;;;6.60;99.90;;;;;;5049462;28;20036;-63
2021/03/15 01:00:04;;;;;;;8.05;2.97;;;6.70;99.90;;;;;;5036478;28;20042;-63
2021/03/15 01:02:30;;;;;;;15.27;3.13;;;6.70;99.90;;;;;;5049045;28;20017;-63
2021/03/15 01:04:56;;;;;;;14.18;3.08;;;6.70;99.90;;;;;;5036814;28;20045;-63
2021/03/15 01:07:21;;;;;;;14.98;3.58;;;6.70;99.90;;;;;;5008964;28;20022;-63
2021/03/15 01:09:47;;;;;;;15.32;2.53;;;6.70;99.90;;;;;;5030683;28;20029;-63
2021/03/15 01:12:13;;;;;;;11.82;2.70;;;6.70;99.90;;;;;;5047957;28;20021;-63
2021/03/15 01:14:38;;;;;;;10.68;2.63;;;6.70;99.90;;;;;;5039085;28;20034;-63
2021/03/15 01:17:08;;;;;;;16.77;2.38;;;6.70;99.90;;;;;;5046587;28;20509;-63
2021/03/15 01:19:33;;;;;;;9.85;2.80;;;6.70;99.90;;;;;;5039980;28;20475;-63
2021/03/15 01:21:59;;;;;;;7.40;2.30;;;6.70;99.90;;;;;;5045321;28;20104;-63
2021/03/15 01:24:25;;;;;;;9.00;2.85;;;6.70;99.90;;;;;;5040985;28;20111;-63
2021/03/15 01:26:50;;;;;;;12.15;3.05;;;6.80;99.90;;;;;;5044959;28;20385;-63
2021/03/15 01:29:16;;;;;;;12.30;2.47;;;6.80;99.90;;;;;;5042017;28;20117;-62
2021/03/15 01:31:42;;;;;;;17.55;2.80;;;6.70;99.90;;;;;;5043476;28;20029;-63
2021/03/15 01:34:08;;;;;;;10.20;3.10;;;6.70;99.90;;;;;;5043312;28;20025;-62
2021/03/15 01:36:35;;;;;;;12.52;2.42;;;6.70;99.90;;;;;;5041536;28;20704;-62
2021/03/15 01:39:02;;;;;;;8.10;2.42;;;6.80;99.90;;;;;;5044037;28;20136;-62
2021/03/15 01:41:27;;;;;;;13.65;3.33;;;6.70;99.90;;;;;;5045086;28;20397;-62
2021/03/15 01:43:53;;;;;;;13.98;3.58;;;6.80;99.90;;;;;;5046745;28;20047;-63
2021/03/15 01:46:19;;;;;;;17.65;2.83;;;6.80;99.90;;;;;;5044155;28;20021;-63
2021/03/15 01:48:46;;;;;;;11.52;3.03;;;6.80;99.90;;;;;;5048776;28;20199;-63
2021/03/15 01:51:12;;;;;;;15.50;3.65;;;6.80;99.90;;;;;;5042839;28;20071;-63
2021/03/15 01:53:37;;;;;;;11.98;2.75;;;6.80;99.90;;;;;;5048732;28;20456;-63
2021/03/15 01:56:03;;;;;;;13.25;3.42;;;6.90;99.90;;;;;;5043495;28;20025;-63
2021/03/15 01:58:30;;;;;;;14.02;3.22;;;6.80;99.90;;;;;;5048585;28;20041;-64
2021/03/15 02:00:56;;;;;;;13.50;2.92;;;6.90;99.90;;;;;;5043344;28;20026;-63
2021/03/15 02:03:21;;;;;;;15.30;2.80;;;6.80;99.90;;;;;;5048716;28;20025;-63
2021/03/15 02:05:47;;;;;;;16.67;3.40;;;6.90;99.90;;;;;;5042354;28;20049;-63
2021/03/15 02:08:13;;;;;;;12.43;2.58;;;6.80;99.90;;;;;;5049793;28;20548;-63
2021/03/15 02:10:39;;;;;;;11.52;2.22;;;6.90;99.90;;;;;;5042166;28;20036;-63
2021/03/15 02:13:28;;;;;;;8.50;2.22;;;6.80;99.90;;;;;;5050672;28;20106;-63
2021/03/15 02:16:20;;;;;;;12.63;2.33;;;6.90;99.90;;;;;;5037516;28;20516;-62
2021/03/15 02:19:05;;;;;;;17.52;3.03;;;6.90;99.90;;;;;;5036049;28;20083;-63
2021/03/15 02:21:50;;;;;;;11.57;2.20;;;7.00;99.90;;;;;;5037093;28;20055;-63
2021/03/15 02:24:42;;;;;;;11.77;2.40;;;7.00;99.90;;;;;;5045177;28;20057;-63
2021/03/15 02:27:42;;;;;;;10.60;2.22;;;6.90;99.90;;;;;;5049922;28;20027;-63
2021/03/15 02:30:45;;;;;;;12.52;2.22;;;6.90;99.90;;;;;;5031885;28;20490;-63
2021/03/15 02:33:28;;;;;;;13.40;2.03;;;7.10;99.90;;;;;;5049677;28;20506;-63
2021/03/15 02:35:56;;;;;;;14.25;2.20;;;7.10;99.90;;;;;;5036216;28;20414;-63
2021/03/15 02:38:25;;;;;;;12.43;2.53;;;6.90;99.90;;;;;;5032836;28;20597;-63
2021/03/15 02:40:56;;;;;;;14.80;2.88;;;6.90;99.90;;;;;;5042586;28;20106;-63
2021/03/15 02:43:29;;;;;;;11.15;2.17;;;7.10;99.90;;;;;;5046075;28;20599;-63
2021/03/15 02:46:01;;;;;;;5.22;2.17;;;7.00;99.90;;;;;;5042391;28;20033;-63
2021/03/15 02:48:28;;;;;;;7.90;2.10;;;7.00;99.90;;;;;;5047817;28;20021;-63
2021/03/15 02:50:56;;;;;;;13.73;2.22;;;7.00;99.90;;;;;;5041451;28;20376;-63
2021/03/15 02:53:24;;;;;;;10.27;2.20;;;7.10;99.90;;;;;;5047587;28;20055;-63
2021/03/15 02:55:53;;;;;;;15.65;2.55;;;7.10;99.90;;;;;;5042211;28;20555;-63
2021/03/15 02:58:20;;;;;;;9.93;2.28;;;7.00;99.90;;;;;;5048152;28;20024;-63
2021/03/15 03:00:47;;;;;;;8.43;2.42;;;7.10;99.90;;;;;;5041943;28;20029;-63
2021/03/15 03:03:13;;;;;;;8.13;1.83;;;7.00;99.90;;;;;;5048941;28;20020;-63
2021/03/15 03:05:40;;;;;;;15.73;2.60;;;7.10;99.90;;;;;;5039951;28;20045;-63
2021/03/15 03:08:08;;;;;;;7.05;2.00;;;7.00;99.90;;;;;;5049841;28;20021;-63
2021/03/15 03:10:34;;;;;;;12.50;2.25;;;7.00;99.90;;;;;;5040234;28;20036;-63
2021/03/15 03:13:02;;;;;;;11.15;2.00;;;7.00;99.90;;;;;;5049627;28;20029;-63
2021/03/15 03:15:31;;;;;;;11.18;2.20;;;6.90;99.90;;;;;;5039418;28;20055;-63
2021/03/15 03:18:01;;;;;;;12.75;2.10;;;6.80;99.90;;;;;;5049917;28;20044;-63
2021/03/15 03:20:27;;;;;;;7.03;1.83;;;6.90;99.90;;;;;;5040284;28;20032;-63
2021/03/15 03:22:56;;;;;;;9.52;1.98;;;7.00;99.90;;;;;;5030722;28;20613;-63
2021/03/15 03:25:24;;;;;;;6.90;1.65;;;6.80;99.90;;;;;;5039647;28;20021;-63
2021/03/15 03:27:54;;;;;;;10.65;2.33;;;6.90;99.90;;;;;;5050762;28;20028;-63
2021/03/15 03:30:22;;;;;;;7.35;1.77;;;6.80;99.90;;;;;;5038509;28;20055;-63
2021/03/15 03:32:49;;;;;;;10.88;1.95;;;6.80;99.90;;;;;;5050617;28;20032;-63
2021/03/15 03:35:15;;;;;;;9.98;1.85;;;6.80;99.90;;;;;;5037678;28;20022;-63
2021/03/15 03:37:40;;;;;;;7.82;1.58;;;6.80;99.90;;;;;;5049965;28;20029;-63
2021/03/15 03:40:07;;;;;;;5.78;1.50;;;6.70;99.90;;;;;;5037870;28;20064;-63
2021/03/15 03:42:33;;;;;;;8.23;1.90;;;6.90;99.90;;;;;;5049948;28;20118;-63
2021/03/15 03:44:59;;;;;;;13.90;1.60;;;6.80;99.90;;;;;;5035568;28;20151;-63
2021/03/15 03:47:24;;;;;;;9.63;1.60;;;6.80;99.90;;;;;;5010534;28;20112;-63
2021/03/15 03:49:50;;;;;;;11.02;2.53;;;6.80;99.90;;;;;;5032225;28;20025;-63
2021/03/15 03:52:20;;;;;;;6.43;1.60;;;6.80;99.90;;;;;;5048142;28;20039;-63
2021/03/15 03:54:49;;;;;;;8.13;1.85;;;6.70;99.90;;;;;;5039312;28;20041;-63
2021/03/15 03:57:27;;;;;;;7.65;1.40;;;6.80;99.90;;;;;;5048870;28;20252;-63
2021/03/15 03:59:55;;;;;;;8.13;1.83;;;6.80;99.90;;;;;;5038383;28;20410;-63
2021/03/15 04:02:25;;;;;;;8.35;1.38;;;6.90;99.90;;;;;;5049555;28;20037;-63
2021/03/15 04:04:57;;;;;;;10.18;1.52;;;6.90;99.90;;;;;;5037764;28;20048;-63
2021/03/15 04:07:25;;;;;;;10.02;1.67;;;7.00;99.90;;;;;;5048980;28;20060;-63
2021/03/15 04:09:57;;;;;;;5.85;1.20;;;7.00;99.90;;;;;;5038418;28;20036;-63
2021/03/15 04:12:23;;;;;;;7.88;1.15;;;6.90;99.90;;;;;;5049587;28;20028;-63
2021/03/15 04:14:51;;;;;;;7.43;1.50;;;6.90;99.90;;;;;;5038739;28;20025;-63
2021/03/15 04:17:22;;;;;;;7.20;1.33;;;7.10;99.90;;;;;;5049125;28;20399;-63
2021/03/15 04:20:00;;;;;;;11.80;1.80;;;7.10;99.90;;;;;;5038870;28;20573;-63
2021/03/15 04:22:29;;;;;;;5.93;1.05;;;7.00;99.90;;;;;;5009348;28;20093;-63
2021/03/15 04:25:00;;;;;;;10.80;1.30;;;7.10;99.90;;;;;;5031854;28;20026;-62
2021/03/15 04:27:28;;;;;;;4.43;1.10;;;7.20;99.90;;;;;;5010317;28;20056;-63
2021/03/15 04:29:55;;;;;;;5.55;1.30;;;7.00;99.90;;;;;;5031697;28;20060;-63
2021/03/15 04:32:21;;;;;;;7.00;1.58;;;7.10;99.90;;;;;;5049064;28;20021;-63
2021/03/15 04:34:48;;;;;;;5.80;1.45;;;7.10;99.90;;;;;;5038988;28;20121;-62
2021/03/15 04:37:15;;;;;;;8.43;1.40;;;7.20;99.90;;;;;;5047077;28;20032;-63
2021/03/15 04:39:41;;;;;;;10.20;1.60;;;7.20;99.90;;;;;;5039666;28;20055;-63
2021/03/15 04:42:07;;;;;;;6.10;1.13;;;7.10;99.90;;;;;;5047160;28;20025;-63
2021/03/15 04:44:37;;;;;;;5.13;1.10;;;7.00;99.90;;;;;;5038198;28;20081;-63
2021/03/15 04:47:04;;;;;;;16.65;1.73;;;7.10;99.90;;;;;;5046390;28;20110;-63
2021/03/15 04:49:32;;;;;;;6.30;1.60;;;7.00;99.90;;;;;;5041363;28;20021;-63
2021/03/15 04:51:59;;;;;;;4.68;1.30;;;7.10;99.90;;;;;;5044938;28;20087;-63
2021/03/15 04:54:25;;;;;;;6.15;1.17;;;7.10;99.90;;;;;;5041776;28;20024;-63
2021/03/15 04:56:53;;;;;;;11.32;1.50;;;7.00;99.90;;;;;;5044629;28;20107;-63
2021/03/15 04:59:19;;;;;;;6.72;1.55;;;7.00;99.90;;;;;;5042567;28;20179;-63
2021/03/15 05:01:47;;;;;;;5.88;1.15;;;7.00;99.90;;;;;;5043862;28;20024;-63
2021/03/15 05:04:14;;;;;;;4.50;1.30;;;6.80;99.90;;;;;;5043412;28;20025;-63
2021/03/15 05:06:42;;;;;;;8.75;1.40;;;6.90;99.90;;;;;;5040995;28;20481;-63
2021/03/15 05:09:09;;;;;;;5.78;1.45;;;6.90;99.90;;;;;;5043823;28;20021;-63
2021/03/15 05:11:38;;;;;;;5.28;1.50;;;7.00;99.90;;;;;;5031293;28;20025;-63
2021/03/15 05:14:05;;;;;;;8.35;1.40;;;6.90;99.90;;;;;;5029276;28;20493;-63
2021/03/15 05:16:35;;;;;;;7.10;1.27;;;6.80;99.90;;;;;;5031988;28;20470;-63
2021/03/15 05:19:03;;;;;;;6.82;1.52;;;6.90;99.90;;;;;;5034073;28;20037;-62
2021/03/15 05:21:32;;;;;;;6.13;1.45;;;6.90;99.90;;;;;;5038977;28;20021;-63
2021/03/15 05:23:58;;;;;;;2.63;0.88;;;6.90;99.90;;;;;;5037496;28;20032;-63
2021/03/15 05:26:25;;;;;;;4.18;1.02;;;7.00;99.90;;;;;;5044594;28;20013;-63
2021/03/15 05:28:51;;;;;;;5.63;1.33;;;7.00;99.90;;;;;;5049416;28;20029;-63
2021/03/15 05:31:18;;;;;;;5.82;1.25;;;6.90;99.90;;;;;;5043510;28;20047;-63
2021/03/15 05:33:46;;;;;;;4.32;1.02;;;7.10;99.90;;;;;;5033097;28;20029;-63
2021/03/15 05:36:14;;;;;;;5.55;1.02;;;7.00;99.90;;;;;;5043499;28;20509;-63
2021/03/15 05:38:40;;;;;;;4.88;0.90;;;6.90;99.90;;;;;;5048941;28;20045;-62
2021/03/15 05:41:11;;;;;;;5.78;1.50;;;6.90;99.90;;;;;;5043912;28;20036;-63
2021/03/15 05:43:54;;;;;;;5.95;1.30;;;6.90;99.90;;;;;;5044598;28;20128;-63
2021/03/15 05:46:43;;;;;;;6.78;1.15;;;6.90;99.90;;;;;;5034102;28;20018;-63
2021/03/15 05:49:43;;;;;;;8.60;1.25;;;7.00;99.90;;;;;;5031894;28;20072;-63
2021/03/15 05:52:26;;;;;;;8.77;1.00;;;7.00;99.90;;;;;;5032214;28;20039;-63
2021/03/15 05:54:58;;;;;;;6.45;1.40;;;7.00;99.90;;;;;;5037476;28;20601;-62
2021/03/15 05:58:06;;;;;;;5.82;1.25;;;6.90;99.90;;;;;;5052085;28;20112;-62
2021/03/15 06:00:37;;;;;;;4.13;1.02;;;7.10;99.90;;;;;;5040849;28;20033;-63
2021/03/15 06:03:31;;;;;;;6.78;1.02;;;7.00;99.90;;;;;;5050941;28;20029;-62
2021/03/15 06:06:02;;;;;;;2.92;1.08;;;7.00;99.90;;;;;;5036633;28;20033;-62
2021/03/15 06:08:30;;;;;;;4.35;1.02;;;7.10;99.90;;;;;;5033789;28;20494;-62
2021/03/15 06:11:13;;;;;;;7.35;1.35;;;7.00;99.90;;;;;;5043109;28;20024;-61
2021/03/15 06:13:40;;;;;;;9.75;1.15;;;7.10;99.90;;;;;;5048302;28;20041;-62
2021/03/15 06:16:08;;;;;;;4.60;1.10;;;7.10;99.90;;;;;;5043044;28;20025;-62
2021/03/15 06:18:34;;;;;;;5.18;1.10;;;6.90;99.90;;;;;;5048820;28;20029;-62
2021/03/15 06:21:01;;;;;;;6.03;1.30;;;6.90;99.90;;;;;;5042322;28;20051;-62
2021/03/15 06:23:28;;;;;;;4.30;1.13;;;7.10;99.90;;;;;;5048325;28;20517;-62
2021/03/15 06:25:55;;;;;;;5.32;1.27;;;6.90;99.90;;;;;;5042204;28;20505;-61
2021/03/15 06:28:22;;;;;;;7.05;1.48;;;7.10;99.90;;;;;;5042706;28;20036;-62
2021/03/15 06:30:49;;;;;;;8.70;1.63;;;7.00;99.90;;;;;;5033936;28;20017;-61
2021/03/15 06:33:17;;;;;;;2.40;0.80;;;7.10;99.90;;;;;;5030831;28;20017;-61
2021/03/15 06:35:44;;;;;;;12.73;2.03;;;7.00;99.90;;;;;;5031394;28;20116;-61
2021/03/15 06:38:10;;;;;;;7.78;1.80;;;7.00;99.90;;;;;;5029252;28;20087;-61
2021/03/15 06:40:40;;;;;;;5.80;1.27;;;6.80;99.90;;;;;;5029980;28;20030;-61
2021/03/15 06:43:06;;;;;;;8.80;1.52;;;6.80;99.90;;;;;;5028999;28;20014;-61
2021/03/15 06:45:32;;;;;;;6.38;1.48;;;6.90;99.90;;;;;;5032789;28;20032;-62
2021/03/15 06:47:58;;;;;;;4.88;1.20;;;7.10;99.90;;;;;;5030518;28;20021;-62
2021/03/15 06:50:24;;;;;;;6.22;1.35;;;7.20;99.90;;;;;;5031256;28;20029;-62
2021/03/15 06:52:53;;;;;;;4.85;1.17;;;7.20;99.90;;;;;;5030315;28;20109;-62
2021/03/15 06:55:24;;;;;;;5.38;1.20;;;7.20;99.90;;;;;;5033030;28;20033;-63
2021/03/15 06:57:51;;;;;;;4.32;0.93;;;7.40;99.90;;;;;;5029517;28;20579;-63
2021/03/15 07:00:21;;;;;;;5.60;1.42;;;7.30;99.90;;;;;;5033679;28;20611;-61
2021/03/15 07:03:02;;;;;;;3.72;1.10;;;7.40;99.90;;;;;;5030062;28;20406;-61
2021/03/15 07:05:29;;;;;;;5.50;1.42;;;7.30;99.90;;;;;;5030225;28;20041;-62
2021/03/15 07:08:02;;;;;;;7.75;1.50;;;7.40;99.90;;;;;;5030476;28;20050;-62
2021/03/15 07:10:30;;;;;;;4.70;1.00;;;7.40;99.90;;;;;;5040912;28;20102;-62
2021/03/15 07:13:19;;;;;;;4.47;1.23;;;7.40;99.90;;;;;;5030614;28;20029;-62
2021/03/15 07:15:47;;;;;;;3.25;0.85;;;7.40;99.90;;;;;;5040986;28;20449;-62
2021/03/15 07:18:18;;;;;;;4.78;0.90;;;7.50;99.90;;;;;;5049322;28;20102;-62
2021/03/15 07:20:49;;;;;;;5.90;1.30;;;7.40;99.90;;;;;;5040013;28;20025;-62
2021/03/15 07:23:15;;;;;;;9.73;2.33;;;7.40;99.90;;;;;;5048832;28;20061;-62
2021/03/15 07:25:42;;;;;;;6.57;2.28;;;7.40;99.90;;;;;;5040176;28;20021;-62
2021/03/15 07:28:08;;;;;;;11.02;1.55;;;7.50;99.90;;;;;;5049416;28;20029;-62
2021/03/15 07:30:35;;;;;;;9.02;2.00;;;7.50;99.90;;;;;;5039127;28;20032;-61
2021/03/15 07:33:03;;;;;;;6.82;1.27;;;7.60;99.90;;;;;;5034199;28;20025;-61
2021/03/15 07:35:35;;;;;;;4.57;1.75;;;7.60;99.90;;;;;;5029107;28;20105;-62
2021/03/15 07:38:01;;;;;;;6.32;1.80;;;7.60;99.90;;;;;;5029906;28;20030;-61
2021/03/15 07:40:28;;;;;;;9.73;1.92;;;7.60;99.90;;;;;;5031813;28;20048;-62
2021/03/15 07:42:56;;;;;;;4.32;1.30;;;7.60;99.90;;;;;;5029097;28;20063;-61
2021/03/15 07:45:33;;;;;;;7.72;1.92;;;7.60;99.90;;;;;;5030104;28;20025;-61
2021/03/15 07:48:21;;;;;;;2.92;1.60;;;7.60;99.90;;;;;;5028982;28;20022;-61
2021/03/15 07:51:04;;;;;;;6.93;1.92;;;7.50;99.90;;;;;;5031735;28;20017;-61
2021/03/15 07:54:02;;;;;;;6.13;1.20;;;7.50;99.90;;;;;;5032209;28;20025;-62
2021/03/15 07:56:27;;;;;;;3.45;0.93;;;7.60;99.90;;;;;;5029447;28;20021;-62
2021/03/15 07:58:54;;;;;;;8.00;1.48;;;7.60;99.90;;;;;;5032107;28;20090;-62
2021/03/15 08:01:20;;;;;;;9.05;1.92;;;7.50;99.90;;;;;;5040300;28;20025;-61
2021/03/15 08:03:45;;;;;;;4.38;1.52;;;7.50;99.90;;;;;;5046391;28;20033;-61
2021/03/15 08:06:12;;;;;;;5.88;1.50;;;7.50;99.90;;;;;;5030721;28;20044;-61
2021/03/15 08:08:39;;;;;;;7.00;1.27;;;7.50;99.90;;;;;;5031955;28;20033;-62
2021/03/15 08:11:08;;;;;;;5.55;1.45;;;7.60;99.90;;;;;;5041102;28;20025;-62
2021/03/15 08:13:38;;;;;;;4.53;1.10;;;7.70;99.90;;;;;;5044707;28;20029;-61
2021/03/15 08:16:05;;;;;;;5.60;1.50;;;7.70;99.90;;;;;;5040493;28;20100;-62
2021/03/15 08:18:31;;;;;;;7.93;1.85;;;7.50;99.90;;;;;;5046365;28;20510;-62
2021/03/15 08:21:04;;;;;;;10.13;2.10;;;7.80;99.90;;;;;;5040293;28;20104;-62
2021/03/15 08:23:39;;;;;;;4.32;1.50;;;7.80;99.90;;;;;;5046178;28;20441;-62
2021/03/15 08:26:07;;;;;;;9.35;2.75;;;7.80;99.90;;;;;;5040729;28;20389;-62
2021/03/15 08:28:34;;;;;;;6.15;1.48;;;7.50;99.90;;;;;;5046187;28;20121;-62
2021/03/15 08:31:25;;;;;;;10.98;2.00;;;7.90;99.90;;;;;;5040556;28;20023;-61
2021/03/15 08:33:51;;;;;;;8.05;1.50;;;8.00;99.90;;;;;;5040054;28;20052;-61
2021/03/15 08:36:17;;;;;;;10.48;2.80;;;7.80;99.90;;;;;;5039898;28;20032;-61
2021/03/15 08:38:43;;;;;;;6.30;2.15;;;8.00;99.90;;;;;;5045995;28;20047;-62
2021/03/15 08:41:22;;;;;;;10.52;2.30;;;7.90;99.90;;;;;;5040425;28;20088;-61
2021/03/15 08:43:51;;;;;;;11.20;1.80;;;8.10;99.90;;;;;;5042872;28;20120;-61
2021/03/15 08:46:25;;;;;;;8.70;2.40;;;8.00;99.90;;;;;;5033923;28;20517;-61
2021/03/15 08:49:03;;;;;;;6.85;1.70;;;8.20;99.90;;;;;;5033720;28;20481;-61
2021/03/15 08:51:34;;;;;;;6.70;1.30;;;8.20;99.90;;;;;;5035839;28;20021;-62
2021/03/15 08:54:04;;;;;;;5.30;1.60;;;8.10;99.90;;;;;;5039261;28;20024;-63
2021/03/15 08:56:30;;;;;;;5.90;1.90;;;8.00;99.90;;;;;;5033919;28;20421;-62
2021/03/15 08:58:56;;;;;;;5.70;1.77;;;8.10;99.90;;;;;;5037606;28;20048;-62
2021/03/15 09:01:24;;;;;;;6.70;1.90;;;8.30;99.90;;;;;;5034013;28;20013;-62
2021/03/15 09:03:53;;;;;;;6.07;1.60;;;8.50;99.90;;;;;;5039499;28;20081;-62
2021/03/15 09:06:33;;;;;;;10.70;2.10;;;8.60;99.90;;;;;;5033130;28;20390;-62
2021/03/15 09:09:10;;;;;;;9.95;2.60;;;8.60;99.90;;;;;;5031944;28;20100;-62
2021/03/15 09:11:41;;;;;;;9.52;2.17;;;8.80;99.90;;;;;;5031574;28;20171;-62
2021/03/15 09:14:30;;;;;;;10.07;2.28;;;9.10;99.90;;;;;;5033673;28;20025;-61
2021/03/15 09:17:13;;;;;;;8.07;2.10;;;9.10;99.90;;;;;;5029643;28;20588;-62
2021/03/15 09:19:39;;;;;;;5.45;2.08;;;8.90;99.90;;;;;;5032464;28;20461;-62
2021/03/15 09:22:19;;;;;;;11.35;2.28;;;8.90;99.90;;;;;;5031081;28;20018;-62
2021/03/15 09:24:44;;;;;;;9.18;2.08;;;8.60;99.90;;;;;;5029815;28;20029;-62
2021/03/15 09:27:23;;;;;;;6.57;2.28;;;8.80;99.90;;;;;;5035030;28;20075;-62
2021/03/15 09:30:10;;;;;;;7.30;2.08;;;8.70;99.90;;;;;;5032964;28;20061;-62
2021/03/15 09:32:37;;;;;;;10.88;2.30;;;8.60;99.90;;;;;;5031819;28;20029;-62
2021/03/15 09:35:17;;;;;;;6.35;1.80;;;8.50;99.90;;;;;;5034799;28;20109;-62
2021/03/15 09:38:21;;;;;;;13.07;2.20;;;8.40;99.90;;;;;;5020465;28;20138;-62
2021/03/15 09:40:53;;;;;;;9.93;2.53;;;8.60;99.90;;;;;;5004673;28;20476;-62
2021/03/15 09:43:26;;;;;;;11.80;2.25;;;8.60;99.90;;;;;;5031178;28;20393;-62
2021/03/15 09:46:04;;;;;;;6.88;1.90;;;8.90;99.90;;;;;;5045717;28;20033;-62
2021/03/15 09:48:32;;;;;;;7.28;1.70;;;9.20;99.90;;;;;;5035136;28;20037;-62
2021/03/15 09:51:04;;;;;;;9.60;1.60;;;9.20;99.90;;;;;;5030698;28;20017;-62
2021/03/15 09:53:30;;;;;;;10.10;2.00;;;9.30;99.90;;;;;;5031135;28;20042;-62
2021/03/15 09:56:07;;;;;;;8.05;1.73;;;9.30;99.90;;;;;;5037779;28;20515;-61
2021/03/15 09:58:33;;;;;;;6.43;2.08;;;9.00;99.90;;;;;;5046567;28;20493;-62
2021/03/15 10:00:59;;;;;;;6.63;1.92;;;9.30;99.90;;;;;;5042316;28;20024;-62
2021/03/15 10:03:26;;;;;;;7.80;1.75;;;9.60;99.90;;;;;;5042398;28;20028;-62
2021/03/15 10:05:56;;;;;;;5.93;1.70;;;9.30;99.90;;;;;;5040938;28;20379;-61
2021/03/15 10:08:22;;;;;;;7.03;1.58;;;9.10;99.90;;;;;;5040688;28;22394;-62
2021/03/15 10:10:49;;;;;;;10.85;1.90;;;9.20;99.90;;;;;;5035152;28;20018;-62
2021/03/15 10:13:16;;;;;;;5.03;1.55;;;9.20;99.90;;;;;;5039740;28;20064;-62
2021/03/15 10:15:42;;;;;;;5.63;1.70;;;9.40;99.90;;;;;;5043307;28;20031;-62
2021/03/15 10:18:08;;;;;;;7.18;1.88;;;9.40;99.90;;;;;;5049936;28;20048;-62
2021/03/15 10:20:37;;;;;;;5.80;1.38;;;9.40;99.90;;;;;;5039962;28;20117;-62
2021/03/15 10:23:22;;;;;;;9.82;1.20;;;9.30;99.90;;;;;;5050911;28;20025;-62
2021/03/15 10:25:54;;;;;;;7.88;1.60;;;9.20;99.90;;;;;;5030883;28;20033;-61
2021/03/15 10:28:20;;;;;;;6.63;1.50;;;9.20;99.90;;;;;;5031036;28;20033;-62
2021/03/15 10:30:46;;;;;;;5.35;1.60;;;9.30;99.90;;;;;;5027912;28;20029;-62
2021/03/15 10:33:11;;;;;;;5.55;1.30;;;9.20;99.90;;;;;;5025225;28;20045;-62
2021/03/15 10:35:38;;;;;;;4.63;1.15;;;9.30;99.90;;;;;;5039543;28;20041;-62
2021/03/15 10:38:05;;;;;;;6.68;1.98;;;9.30;99.90;;;;;;5035346;28;20041;-62
2021/03/15 10:40:31;;;;;;;6.95;1.50;;;9.40;99.90;;;;;;5040349;28;20048;-62
2021/03/15 10:42:59;;;;;;;7.72;1.98;;;9.50;99.90;;;;;;5048280;28;20010;-62
2021/03/15 10:45:26;;;;;;;8.50;1.48;;;9.40;99.90;;;;;;5039504;28;20022;-62
2021/03/15 10:48:03;;;;;;;5.07;1.60;;;9.50;99.90;;;;;;5051670;28;20025;-62
2021/03/15 10:50:34;;;;;;;6.68;1.73;;;9.70;99.90;;;;;;5038952;28;20036;-62
2021/03/15 10:53:22;;;;;;;5.45;1.98;;;9.60;99.90;;;;;;5050906;28;20021;-62
2021/03/15 10:55:48;;;;;;;9.43;1.80;;;9.90;99.90;;;;;;5040440;28;20075;-61
2021/03/15 10:58:15;;;;;;;7.47;1.85;;;9.90;99.90;;;;;;5050111;28;20638;-62
2021/03/15 11:00:43;;;;;;;8.75;1.88;;;9.70;99.90;;;;;;5038369;28;20474;-62
2021/03/15 11:03:24;;;;;;;5.18;1.70;;;9.80;99.90;;;;;;5049492;28;20029;-62
2021/03/15 11:06:06;;;;;;;5.97;1.70;;;9.90;99.90;;;;;;5031014;28;20104;-62
2021/03/15 11:08:32;;;;;;;8.40;1.85;;;9.80;99.90;;;;;;5028671;28;20036;-62
2021/03/15 11:11:18;;;;;;;9.25;2.25;;;9.90;99.90;;;;;;5029293;28;20025;-62
2021/03/15 11:13:49;;;;;;;9.50;1.85;;;10.10;99.90;;;;;;5029722;28;20410;-62
2021/03/15 11:16:19;;;;;;;19.02;2.90;;;10.10;99.90;;;;;;5029544;28;20496;-62
2021/03/15 11:18:45;;;;;;;7.45;2.33;;;10.10;99.90;;;;;;5031395;28;20042;-62
2021/03/15 11:21:13;;;;;;;5.57;1.77;;;10.20;99.90;;;;;;5028897;28;20030;-62
2021/03/15 11:23:41;;;;;;;6.82;2.00;;;10.20;99.90;;;;;;5030832;28;20025;-62
2021/03/15 11:26:16;;;;;;;6.53;1.73;;;10.00;99.90;;;;;;5033029;28;20460;-62
2021/03/15 11:28:42;;;;;;;8.85;2.53;;;9.90;99.90;;;;;;5032788;28;20498;-62
2021/03/15 11:31:19;;;;;;;9.13;2.28;;;10.00;99.90;;;;;;5027835;28;20037;-62
2021/03/15 11:33:52;;;;;;;9.10;2.00;;;10.10;99.90;;;;;;5027248;28;20026;-62
2021/03/15 11:36:20;;;;;;;4.05;2.28;;;10.20;99.90;;;;;;5040655;28;20409;-62
2021/03/15 11:38:55;;;;;;;6.03;1.95;;;10.30;99.90;;;;;;5046501;28;20109;-62
2021/03/15 11:41:29;;;;;;;10.10;2.07;;;10.50;99.90;;;;;;5041249;28;20096;-62
2021/03/15 11:43:55;;;;;;;11.20;2.25;;;10.40;99.90;;;;;;5041529;28;20315;-62
2021/03/15 11:46:21;;;;;;;8.32;2.63;;;10.60;99.90;;;;;;5040536;28;20053;-62
2021/03/15 11:48:48;;;;;;;10.15;2.30;;;10.50;99.90;;;;;;5046271;28;20040;-62
2021/03/15 11:51:16;;;;;;;6.85;2.38;;;10.60;99.90;;;;;;5040358;28;20036;-62
2021/03/15 11:53:43;;;;;;;5.45;2.20;;;10.70;99.90;;;;;;5030432;28;20036;-62
2021/03/15 11:56:09;;;;;;;9.35;2.17;;;10.90;99.90;;;;;;5032720;28;20033;-62
2021/03/15 11:58:35;;;;;;;5.88;1.90;;;10.70;99.90;;;;;;5031691;28;20033;-62
2021/03/15 12:01:03;;;;;;;9.63;2.33;;;11.00;99.90;;;;;;5030150;28;20025;-62
2021/03/15 12:03:29;;;;;;;9.93;2.17;;;11.00;99.90;;;;;;5030525;28;20057;-62
2021/03/15 12:05:55;;;;;;;6.22;2.10;;;11.30;99.90;;;;;;5039366;28;20142;-62
2021/03/15 12:08:21;;;;;;;3.95;2.25;;;11.30;99.90;;;;;;5030854;28;20026;-62
2021/03/15 12:10:46;;;;;;;7.28;2.30;;;11.40;99.90;;;;;;5039733;28;20059;-63
2021/03/15 12:13:12;;;;;;;7.32;2.25;;;11.30;99.90;;;;;;5048609;28;20028;-62
2021/03/15 12:15:38;;;;;;;6.82;1.70;;;11.40;99.90;;;;;;5036825;28;20473;-62
2021/03/15 12:18:07;;;;;;;4.70;1.58;;;11.40;99.90;;;;;;5029112;28;20524;-62
2021/03/15 12:20:34;;;;;;;6.32;1.80;;;11.30;99.90;;;;;;5029412;28;20037;-62
2021/03/15 12:23:00;;;;;;;7.68;2.08;;;11.10;99.90;;;;;;5029615;28;20028;-62
2021/03/15 12:25:26;;;;;;;8.88;2.55;;;11.30;99.90;;;;;;5040021;28;20082;-62
2021/03/15 12:27:55;;;;;;;9.57;2.47;;;11.20;99.90;;;;;;5029834;28;20022;-63
2021/03/15 12:30:23;;;;;;;9.63;2.50;;;11.40;99.90;;;;;;5036580;28;20040;-62
2021/03/15 12:32:50;;;;;;;5.00;2.13;;;11.60;99.90;;;;;;5049831;28;20128;-62
2021/03/15 12:35:16;;;;;;;8.55;2.22;;;12.00;99.90;;;;;;5036534;28;20108;-62
2021/03/15 12:37:42;;;;;;;8.70;2.22;;;12.00;99.90;;;;;;5049061;28;20044;-62
2021/03/15 12:40:08;;;;;;;6.22;2.20;;;11.80;99.90;;;;;;5037099;28;20061;-63
2021/03/15 12:42:34;;;;;;;5.80;2.08;;;11.90;99.90;;;;;;5049755;28;20028;-62
2021/03/15 12:45:00;;;;;;;10.77;2.97;;;12.00;99.90;;;;;;5034479;28;20401;-62
2021/03/15 12:47:26;;;;;;;11.57;2.45;;;11.90;99.90;;;;;;5048676;28;20096;-62
2021/03/15 12:49:51;;;;;;;7.97;2.00;;;12.10;99.90;;;;;;5039464;28;20117;-62
2021/03/15 12:52:17;;;;;;;8.35;2.17;;;12.00;99.90;;;;;;5046397;28;20028;-62
2021/03/15 12:54:43;;;;;;;4.00;2.00;;;12.00;99.90;;;;;;5040150;28;20033;-62
2021/03/15 12:57:10;;;;;;;6.50;2.10;;;12.10;99.90;;;;;;5046372;28;20017;-62
2021/03/15 12:59:35;;;;;;;4.32;1.80;;;12.10;99.90;;;;;;5035643;28;20040;-62
2021/03/15 13:02:03;;;;;;;5.53;1.90;;;12.00;99.90;;;;;;5033252;28;20164;-62
2021/03/15 13:04:29;;;;;;;8.10;2.47;;;12.00;99.90;;;;;;5034087;28;20026;-62
2021/03/15 13:06:55;;;;;;;4.53;2.05;;;11.90;99.90;;;;;;5028500;28;20399;-62